createdAt,value
2023-05-22T00:00:22.162Z,20.30
2023-05-22T00:02:50.946Z,20.20
2023-05-22T00:05:20.636Z,20.20
2023-05-22T00:07:48.774Z,20.20
2023-05-22T00:10:18.277Z,20.20
2023-05-22T00:12:46.342Z,20.20
2023-05-22T00:15:14.415Z,20.30
2023-05-22T00:17:43.233Z,20.30
2023-05-22T00:20:11.964Z,20.30
2023-05-22T00:22:40.070Z,20.30
2023-05-22T00:25:09.402Z,20.30
2023-05-22T00:27:38.831Z,20.30
2023-05-22T00:30:09.039Z,20.30
2023-05-22T00:32:37.217Z,20.20
2023-05-22T00:35:06.673Z,20.20
2023-05-22T00:37:34.735Z,20.20
2023-05-22T00:40:04.263Z,20.20
2023-05-22T00:42:32.384Z,20.20
2023-05-22T00:45:01.854Z,20.20
2023-05-22T00:47:30.064Z,20.20
2023-05-22T00:49:58.175Z,20.20
2023-05-22T00:52:26.317Z,20.30
2023-05-22T00:54:54.423Z,20.30
2023-05-22T00:57:23.174Z,20.20
2023-05-22T00:59:51.273Z,20.20
2023-05-22T01:02:20.757Z,20.20
2023-05-22T01:04:49.424Z,20.10
2023-05-22T01:07:17.961Z,20.00
2023-05-22T01:09:46.091Z,20.00
2023-05-22T01:12:18.388Z,20.00
2023-05-22T01:14:49.858Z,20.00
2023-05-22T01:17:23.540Z,20.00
2023-05-22T01:20:01.601Z,20.00
2023-05-22T01:22:42.670Z,20.10
2023-05-22T01:25:21.251Z,20.10
2023-05-22T01:28:02.352Z,20.10
2023-05-22T01:30:53.761Z,20.20
2023-05-22T01:33:21.948Z,20.10
2023-05-22T01:35:52.126Z,20.10
2023-05-22T01:38:20.208Z,20.10
2023-05-22T01:40:48.309Z,20.10
2023-05-22T01:43:16.573Z,20.00
2023-05-22T01:45:44.771Z,20.10
2023-05-22T01:48:14.247Z,20.10
2023-05-22T01:50:42.472Z,20.10
2023-05-22T01:53:20.511Z,20.20
2023-05-22T01:55:50.968Z,20.20
2023-05-22T01:58:22.563Z,20.20
2023-05-22T02:00:51.645Z,20.20
2023-05-22T02:03:23.208Z,20.20
2023-05-22T02:05:53.184Z,20.10
2023-05-22T02:08:21.604Z,20.10
2023-05-22T02:10:50.117Z,20.10
2023-05-22T02:13:18.195Z,20.10
2023-05-22T02:15:46.672Z,20.10
2023-05-22T02:18:14.797Z,20.20
2023-05-22T02:20:44.302Z,20.10
2023-05-22T02:23:12.398Z,20.20
2023-05-22T02:25:40.833Z,20.20
2023-05-22T02:28:08.953Z,20.10
2023-05-22T02:30:37.210Z,20.10
2023-05-22T02:33:06.670Z,20.10
2023-05-22T02:35:34.843Z,20.00
2023-05-22T02:38:04.413Z,20.00
2023-05-22T02:40:32.498Z,20.00
2023-05-22T02:43:00.619Z,20.10
2023-05-22T02:45:28.727Z,20.10
2023-05-22T02:47:56.928Z,20.10
2023-05-22T02:50:25.073Z,20.10
2023-05-22T02:52:53.144Z,20.10
2023-05-22T02:55:22.848Z,20.10
2023-05-22T02:57:51.352Z,20.10
2023-05-22T03:00:20.738Z,20.10
2023-05-22T03:02:48.894Z,20.00
2023-05-22T03:05:18.188Z,19.90
2023-05-22T03:07:48.766Z,19.90
2023-05-22T03:10:17.163Z,19.90
2023-05-22T03:12:46.627Z,19.80
2023-05-22T03:15:14.776Z,19.90
2023-05-22T03:17:42.880Z,20.00
2023-05-22T03:20:11.610Z,20.00
2023-05-22T03:22:39.708Z,19.90
2023-05-22T03:25:09.796Z,20.00
2023-05-22T03:27:39.292Z,20.00
2023-05-22T03:30:09.917Z,20.10
2023-05-22T03:32:38.600Z,20.00
2023-05-22T03:35:07.652Z,20.00
2023-05-22T03:37:35.738Z,20.00
2023-05-22T03:40:04.887Z,19.90
2023-05-22T03:42:33.016Z,20.00
2023-05-22T03:45:01.167Z,20.00
2023-05-22T03:47:30.681Z,20.00
2023-05-22T03:49:58.765Z,20.00
2023-05-22T03:52:26.856Z,20.00
2023-05-22T03:54:54.932Z,20.00
2023-05-22T03:57:23.133Z,20.00
2023-05-22T03:59:51.363Z,20.10
2023-05-22T04:02:19.740Z,20.00
2023-05-22T04:04:49.412Z,20.00
2023-05-22T04:07:20.390Z,19.90
2023-05-22T04:09:48.538Z,19.90
2023-05-22T04:12:16.869Z,20.00
2023-05-22T04:14:44.977Z,20.00
2023-05-22T04:17:13.073Z,20.00
2023-05-22T04:19:41.189Z,20.00
2023-05-22T04:22:10.643Z,20.10
2023-05-22T04:27:29.833Z,20.10
2023-05-22T04:30:00.086Z,20.00
2023-05-22T04:32:29.761Z,20.00
2023-05-22T04:35:00.695Z,19.90
2023-05-22T04:37:31.708Z,20.00
2023-05-22T04:40:03.340Z,19.90
2023-05-22T04:42:31.758Z,20.00
2023-05-22T04:44:59.937Z,20.00
2023-05-22T04:47:29.106Z,20.00
2023-05-22T04:49:57.202Z,20.00
2023-05-22T04:52:25.287Z,20.10
2023-05-22T04:54:55.531Z,20.10
2023-05-22T04:57:25.640Z,20.10
2023-05-22T04:59:53.991Z,20.10
2023-05-22T05:02:22.117Z,20.00
2023-05-22T05:04:50.257Z,19.90
2023-05-22T05:07:18.782Z,19.90
2023-05-22T05:09:46.889Z,19.90
2023-05-22T05:12:16.433Z,19.90
2023-05-22T05:14:44.537Z,19.90
2023-05-22T05:17:12.686Z,19.90
2023-05-22T05:19:40.861Z,20.00
2023-05-22T05:22:09.162Z,20.00
2023-05-22T05:24:37.288Z,20.10
2023-05-22T05:27:05.430Z,20.10
2023-05-22T05:29:34.912Z,20.10
2023-05-22T05:32:04.103Z,20.10
2023-05-22T05:34:32.467Z,20.10
2023-05-22T05:37:01.403Z,20.20
2023-05-22T05:39:29.630Z,20.10
2023-05-22T05:41:57.858Z,20.20
2023-05-22T05:44:26.073Z,20.10
2023-05-22T05:46:55.856Z,20.20
2023-05-22T05:49:24.011Z,20.20
2023-05-22T05:51:52.079Z,20.30
2023-05-22T05:54:20.300Z,20.30
2023-05-22T05:56:48.494Z,20.30
2023-05-22T05:59:16.652Z,20.40
2023-05-22T06:01:45.973Z,20.40
2023-05-22T06:04:15.575Z,20.40
2023-05-22T06:06:44.560Z,20.40
2023-05-22T06:09:12.792Z,20.50
2023-05-22T06:11:40.885Z,20.50
2023-05-22T06:14:10.053Z,20.50
2023-05-22T06:16:38.193Z,20.50
2023-05-22T06:19:06.395Z,20.60
2023-05-22T06:21:35.976Z,20.50
2023-05-22T06:24:04.080Z,20.60
2023-05-22T06:26:32.200Z,20.70
2023-05-22T06:29:00.360Z,20.70
2023-05-22T06:31:29.089Z,20.70
2023-05-22T06:33:57.409Z,20.70
2023-05-22T06:36:25.567Z,20.70
2023-05-22T06:38:55.582Z,20.70
2023-05-22T06:41:23.799Z,20.70
2023-05-22T06:43:51.909Z,20.70
2023-05-22T06:46:20.032Z,20.70
2023-05-22T06:48:48.173Z,20.70
2023-05-22T06:51:16.387Z,20.70
2023-05-22T06:53:44.506Z,20.70
2023-05-22T06:56:14.442Z,20.70
2023-05-22T06:58:42.605Z,20.70
2023-05-22T07:01:13.789Z,20.60
2023-05-22T07:03:41.902Z,20.70
2023-05-22T07:06:10.127Z,20.70
2023-05-22T07:08:38.325Z,20.70
2023-05-22T07:11:07.708Z,20.70
2023-05-22T07:13:37.216Z,20.70
2023-05-22T07:16:06.522Z,20.80
2023-05-22T07:18:34.849Z,20.80
2023-05-22T07:21:03.059Z,20.80
2023-05-22T07:23:31.668Z,20.80
2023-05-22T07:25:59.790Z,20.70
2023-05-22T07:28:27.884Z,20.70
2023-05-22T07:30:57.497Z,20.70
2023-05-22T07:33:26.474Z,20.70
2023-05-22T07:35:54.659Z,20.70
2023-05-22T07:38:22.792Z,20.80
2023-05-22T07:40:51.096Z,20.80
2023-05-22T07:43:19.218Z,20.80
2023-05-22T07:45:47.322Z,20.80
2023-05-22T07:48:16.984Z,20.90
2023-05-22T07:50:45.585Z,20.90
2023-05-22T07:53:13.896Z,20.90
2023-05-22T07:55:42.322Z,20.90
2023-05-22T07:58:10.953Z,20.90
2023-05-22T08:00:39.129Z,21.00
2023-05-22T08:03:07.485Z,21.00
2023-05-22T08:05:37.187Z,20.90
2023-05-22T08:08:05.759Z,20.90
2023-05-22T08:10:52.035Z,20.90
2023-05-22T08:13:23.157Z,21.00
2023-05-22T08:16:00.325Z,20.90
2023-05-22T08:18:29.783Z,20.90
2023-05-22T08:21:00.577Z,20.90
2023-05-22T08:23:28.828Z,21.00
2023-05-22T08:25:57.134Z,21.10
2023-05-22T08:28:25.206Z,21.00
2023-05-22T08:30:54.498Z,21.10
2023-05-22T08:33:23.134Z,21.10
2023-05-22T08:35:51.263Z,21.10
2023-05-22T08:38:21.004Z,21.10
2023-05-22T08:40:49.626Z,21.00
2023-05-22T08:43:17.904Z,21.10
2023-05-22T08:45:46.107Z,21.10
2023-05-22T08:48:14.547Z,21.10
2023-05-22T08:50:43.373Z,21.20
2023-05-22T08:53:13.084Z,21.00
2023-05-22T08:55:42.556Z,21.10
2023-05-22T08:58:11.052Z,21.10
2023-05-22T09:00:39.323Z,21.10
2023-05-22T09:03:10.244Z,21.20
2023-05-22T09:05:39.285Z,21.10
2023-05-22T09:08:19.197Z,21.20
2023-05-22T09:10:50.364Z,21.20
2023-05-22T09:13:26.243Z,21.20
2023-05-22T09:15:54.515Z,21.30
2023-05-22T09:18:22.734Z,21.30
2023-05-22T09:20:50.897Z,21.20
2023-05-22T09:23:20.396Z,21.30
2023-05-22T09:25:49.945Z,21.30
2023-05-22T09:28:18.121Z,21.30
2023-05-22T09:30:49.718Z,21.40
2023-05-22T09:33:17.890Z,21.30
2023-05-22T09:35:47.333Z,21.30
2023-05-22T09:38:15.487Z,21.30
2023-05-22T09:40:43.674Z,21.30
2023-05-22T09:43:13.167Z,21.30
2023-05-22T09:45:41.440Z,21.40
2023-05-22T09:48:10.485Z,21.40
2023-05-22T09:50:40.098Z,21.30
2023-05-22T09:53:08.955Z,21.40
2023-05-22T09:55:37.082Z,21.40
2023-05-22T09:58:05.413Z,21.40
2023-05-22T10:00:35.036Z,21.40
2023-05-22T10:03:05.290Z,21.30
2023-05-22T10:05:34.068Z,21.50
2023-05-22T10:08:06.261Z,21.50
2023-05-22T10:10:34.377Z,21.50
2023-05-22T10:13:02.893Z,21.50
2023-05-22T10:15:31.233Z,21.60
2023-05-22T10:18:00.754Z,21.60
2023-05-22T10:20:29.246Z,21.60
2023-05-22T10:22:57.672Z,21.70
2023-05-22T10:25:26.192Z,21.70
2023-05-22T10:27:54.690Z,21.60
2023-05-22T10:30:25.796Z,21.60
2023-05-22T10:32:56.469Z,21.50
2023-05-22T10:35:30.490Z,21.50
2023-05-22T10:38:08.934Z,21.60
2023-05-22T10:40:37.227Z,21.60
2023-05-22T10:43:05.366Z,21.60
2023-05-22T10:45:33.560Z,21.60
2023-05-22T10:48:06.973Z,21.60
2023-05-22T10:50:36.861Z,21.60
2023-05-22T10:53:24.148Z,21.70
2023-05-22T10:55:53.118Z,21.70
2023-05-22T10:58:27.162Z,21.70
2023-05-22T11:01:14.527Z,21.80
2023-05-22T11:04:01.043Z,21.70
2023-05-22T11:06:41.066Z,21.70
2023-05-22T11:09:22.901Z,21.80
2023-05-22T11:12:14.491Z,21.80
2023-05-22T11:14:42.650Z,21.80
2023-05-22T11:17:13.438Z,21.90
2023-05-22T11:19:42.638Z,22.00
2023-05-22T11:22:13.596Z,22.00
2023-05-22T11:24:42.103Z,22.00
2023-05-22T11:27:10.184Z,22.00
2023-05-22T11:29:39.031Z,22.00
2023-05-22T11:32:07.564Z,22.00
2023-05-22T11:34:35.649Z,22.00
2023-05-22T11:37:03.713Z,22.00
2023-05-22T11:39:36.103Z,22.00
2023-05-22T11:42:05.085Z,22.00
2023-05-22T11:44:33.164Z,22.00
2023-05-22T11:47:01.282Z,22.00
2023-05-22T11:49:29.370Z,22.00
2023-05-22T11:51:57.481Z,22.10
2023-05-22T11:54:25.560Z,22.10
2023-05-22T11:56:58.222Z,22.00
2023-05-22T11:59:26.369Z,22.10
2023-05-22T12:01:54.875Z,22.10
2023-05-22T12:04:23.978Z,22.20
2023-05-22T12:06:52.215Z,22.20
2023-05-22T12:09:20.458Z,22.20
2023-05-22T12:11:48.907Z,22.20
2023-05-22T12:14:18.418Z,22.30
2023-05-22T12:16:46.978Z,22.30
2023-05-22T12:19:15.376Z,22.20
2023-05-22T12:21:43.808Z,22.20
2023-05-22T12:24:11.962Z,22.20
2023-05-22T12:26:40.029Z,22.20
2023-05-22T12:29:08.086Z,22.20
2023-05-22T12:31:38.765Z,22.20
2023-05-22T12:34:08.400Z,22.20
2023-05-22T12:36:36.701Z,22.20
2023-05-22T12:39:08.651Z,22.20
2023-05-22T12:41:36.806Z,22.20
2023-05-22T12:44:04.899Z,22.20
2023-05-22T12:46:33.025Z,22.20
2023-05-22T12:49:02.648Z,22.30
2023-05-22T12:51:32.869Z,22.30
2023-05-22T12:54:01.504Z,22.30
2023-05-22T12:56:29.983Z,22.30
2023-05-22T12:58:58.106Z,22.30
2023-05-22T13:01:26.300Z,22.30
2023-05-22T13:03:54.471Z,22.30
2023-05-22T13:06:23.921Z,22.30
2023-05-22T13:08:52.352Z,22.40
2023-05-22T13:11:23.459Z,22.40
2023-05-22T13:13:51.615Z,22.40
2023-05-22T13:16:19.776Z,22.30
2023-05-22T13:18:48.041Z,22.30
2023-05-22T13:21:16.399Z,22.30
2023-05-22T13:23:45.905Z,22.30
2023-05-22T13:26:14.090Z,22.30
2023-05-22T13:28:42.149Z,22.40
2023-05-22T13:31:10.280Z,22.40
2023-05-22T13:33:38.462Z,22.40
2023-05-22T13:36:10.169Z,22.40
2023-05-22T13:38:38.824Z,22.40
2023-05-22T13:41:08.306Z,22.40
2023-05-22T13:43:36.405Z,22.40
2023-05-22T13:46:04.911Z,22.40
2023-05-22T13:48:32.978Z,22.40
2023-05-22T13:51:01.021Z,22.40
2023-05-22T13:53:29.081Z,22.40
2023-05-22T13:55:57.251Z,22.40
2023-05-22T13:58:26.782Z,22.40
2023-05-22T14:00:54.961Z,22.40
2023-05-22T14:03:23.169Z,22.50
2023-05-22T14:05:51.432Z,22.50
2023-05-22T14:08:19.565Z,22.50
2023-05-22T14:10:47.791Z,22.60
2023-05-22T14:13:16.149Z,22.60
2023-05-22T14:15:46.962Z,22.50
2023-05-22T14:18:16.506Z,22.50
2023-05-22T14:20:45.042Z,22.40
2023-05-22T14:23:13.200Z,22.40
2023-05-22T14:25:43.164Z,22.40
2023-05-22T14:28:11.632Z,22.40
2023-05-22T14:30:40.044Z,22.40
2023-05-22T14:33:09.832Z,22.40
2023-05-22T14:35:38.115Z,22.40
2023-05-22T14:38:06.765Z,22.40
2023-05-22T14:40:34.900Z,22.50
2023-05-22T14:43:02.986Z,22.50
2023-05-22T14:45:31.364Z,22.50
2023-05-22T14:47:59.499Z,22.50
2023-05-22T14:50:29.173Z,22.50
2023-05-22T14:52:57.372Z,22.50
2023-05-22T14:55:27.994Z,22.50
2023-05-22T14:57:56.341Z,22.50
2023-05-22T15:00:24.466Z,22.50
2023-05-22T15:02:52.714Z,22.60
2023-05-22T15:05:20.991Z,22.60
2023-05-22T15:07:51.568Z,22.60
2023-05-22T15:10:19.961Z,22.60
2023-05-22T15:12:51.398Z,22.50
2023-05-22T15:15:19.567Z,22.60
2023-05-22T15:17:48.647Z,22.60
2023-05-22T15:20:17.033Z,22.60
2023-05-22T15:22:45.146Z,22.60
2023-05-22T15:25:15.916Z,22.60
2023-05-22T15:27:44.047Z,22.50
2023-05-22T15:30:12.915Z,22.50
2023-05-22T15:32:41.418Z,22.50
2023-05-22T15:35:11.737Z,22.50
2023-05-22T15:37:39.870Z,22.50
2023-05-22T15:40:09.835Z,22.50
2023-05-22T15:42:39.530Z,22.50
2023-05-22T15:45:08.914Z,22.50
2023-05-22T15:47:37.289Z,22.50
2023-05-22T15:50:06.276Z,22.50
2023-05-22T15:52:34.379Z,22.50
2023-05-22T15:55:02.455Z,22.50
2023-05-22T15:57:30.595Z,22.50
2023-05-22T16:00:00.039Z,22.50
2023-05-22T16:02:28.292Z,22.50
2023-05-22T16:04:56.439Z,22.50
2023-05-22T16:07:24.511Z,22.50
2023-05-22T16:09:52.617Z,22.50
2023-05-22T16:12:20.778Z,22.50
2023-05-22T16:14:49.594Z,22.50
2023-05-22T16:17:19.194Z,22.50
2023-05-22T16:19:47.388Z,22.50
2023-05-22T16:22:15.490Z,22.50
2023-05-22T16:24:43.650Z,22.50
2023-05-22T16:27:11.728Z,22.40
2023-05-22T16:29:40.188Z,22.40
2023-05-22T16:32:08.426Z,22.40
2023-05-22T16:34:38.738Z,22.30
2023-05-22T16:37:06.835Z,22.30
2023-05-22T16:39:35.186Z,22.30
2023-05-22T16:42:03.321Z,22.30
2023-05-22T16:44:31.460Z,22.30
2023-05-22T16:46:59.649Z,22.30
2023-05-22T16:49:28.019Z,22.30
2023-05-22T16:51:58.591Z,22.30
2023-05-22T16:54:26.817Z,22.30
2023-05-22T16:56:55.012Z,22.30
2023-05-22T16:59:23.236Z,22.30
2023-05-22T17:01:51.419Z,22.30
2023-05-22T17:04:20.711Z,22.30
2023-05-22T17:06:49.159Z,22.30
2023-05-22T17:09:18.722Z,22.20
2023-05-22T17:11:47.097Z,22.20
2023-05-22T17:14:15.628Z,22.30
2023-05-22T17:16:43.768Z,22.20
2023-05-22T17:19:12.133Z,22.20
2023-05-22T17:21:40.579Z,22.20
2023-05-22T17:24:11.613Z,22.20
2023-05-22T17:26:44.214Z,22.20
2023-05-22T17:29:12.403Z,22.20
2023-05-22T17:31:40.539Z,22.10
2023-05-22T17:34:08.667Z,22.10
2023-05-22T17:36:36.800Z,22.10
2023-05-22T17:39:05.001Z,22.10
2023-05-22T17:41:33.243Z,22.10
2023-05-22T17:44:02.855Z,22.10
2023-05-22T17:46:31.133Z,22.10
2023-05-22T17:48:59.437Z,22.10
2023-05-22T17:51:27.645Z,22.10
2023-05-22T17:53:56.505Z,22.10
2023-05-22T17:56:25.233Z,22.10
2023-05-22T17:58:53.915Z,22.10
2023-05-22T18:01:24.533Z,22.10
2023-05-22T18:03:52.872Z,22.10
2023-05-22T18:06:23.316Z,22.10
2023-05-22T18:08:52.324Z,22.10
2023-05-22T18:11:21.137Z,22.10
2023-05-22T18:13:49.290Z,22.10
2023-05-22T18:16:18.704Z,22.10
2023-05-22T18:18:48.402Z,22.00
2023-05-22T18:21:16.748Z,22.00
2023-05-22T18:23:44.879Z,22.00
2023-05-22T18:26:13.102Z,22.00
2023-05-22T18:28:42.470Z,21.90
2023-05-22T18:31:10.716Z,21.90
2023-05-22T18:33:39.801Z,21.80
2023-05-22T18:36:09.394Z,21.90
2023-05-22T18:38:37.482Z,21.90
2023-05-22T18:41:06.959Z,21.90
2023-05-22T18:43:35.204Z,21.90
2023-05-22T18:46:03.335Z,21.80
2023-05-22T18:48:33.198Z,21.90
2023-05-22T18:51:01.453Z,21.90
2023-05-22T18:53:31.579Z,21.90
2023-05-22T18:55:59.705Z,21.90
2023-05-22T18:58:27.913Z,21.80
2023-05-22T19:00:56.522Z,21.90
2023-05-22T19:03:24.799Z,21.90
2023-05-22T19:05:53.299Z,21.90
2023-05-22T19:08:21.422Z,21.90
2023-05-22T19:10:50.894Z,21.90
2023-05-22T19:13:19.047Z,21.90
2023-05-22T19:15:47.551Z,21.90
2023-05-22T19:18:16.007Z,21.90
2023-05-22T19:20:44.204Z,21.80
2023-05-22T19:23:13.818Z,21.80
2023-05-22T19:25:42.019Z,21.80
2023-05-22T19:28:11.610Z,21.80
2023-05-22T19:30:40.283Z,21.80
2023-05-22T19:33:09.129Z,21.80
2023-05-22T19:35:37.897Z,21.80
2023-05-22T19:38:06.485Z,21.80
2023-05-22T19:40:34.594Z,21.80
2023-05-22T19:43:02.879Z,21.90
2023-05-22T19:45:32.632Z,21.80
2023-05-22T19:48:00.776Z,21.90
2023-05-22T19:50:28.937Z,21.80
2023-05-22T19:52:57.044Z,21.80
2023-05-22T19:55:25.747Z,21.80
2023-05-22T19:57:53.866Z,21.80
2023-05-22T20:00:22.972Z,21.90
2023-05-22T20:02:52.473Z,21.90
2023-05-22T20:05:20.956Z,21.90
2023-05-22T20:07:49.426Z,21.80
2023-05-22T20:10:17.734Z,21.80
2023-05-22T20:12:45.963Z,21.70
2023-05-22T20:15:14.994Z,21.70
2023-05-22T20:17:47.602Z,21.70
2023-05-22T20:20:17.393Z,21.70
2023-05-22T20:22:48.394Z,21.70
2023-05-22T20:25:17.326Z,21.70
2023-05-22T20:27:45.414Z,21.70
2023-05-22T20:30:14.353Z,21.70
2023-05-22T20:32:45.601Z,21.70
2023-05-22T20:35:14.144Z,21.70
2023-05-22T20:37:43.626Z,21.70
2023-05-22T20:40:13.028Z,21.70
2023-05-22T20:42:42.783Z,21.70
2023-05-22T20:45:14.252Z,21.70
2023-05-22T20:47:43.095Z,21.70
2023-05-22T20:50:12.038Z,21.70
2023-05-22T20:52:40.128Z,21.80
2023-05-22T20:55:10.515Z,21.70
2023-05-22T20:57:38.700Z,21.70
2023-05-22T21:00:11.244Z,21.60
2023-05-22T21:02:39.886Z,21.60
2023-05-22T21:05:08.634Z,21.60
2023-05-22T21:07:36.723Z,21.60
2023-05-22T21:10:05.060Z,21.60
2023-05-22T21:12:34.529Z,21.70
2023-05-22T21:15:02.617Z,21.60
2023-05-22T21:17:30.802Z,21.60
2023-05-22T21:19:58.929Z,21.70
2023-05-22T21:22:26.979Z,21.60
2023-05-22T21:24:55.062Z,21.60
2023-05-22T21:27:23.145Z,21.60
2023-05-22T21:29:52.595Z,21.70
2023-05-22T21:32:20.686Z,21.70
2023-05-22T21:34:48.756Z,21.60
2023-05-22T21:37:16.932Z,21.70
2023-05-22T21:39:45.050Z,21.70
2023-05-22T21:42:13.140Z,21.70
2023-05-22T21:44:41.406Z,21.60
2023-05-22T21:47:11.049Z,21.60
2023-05-22T21:49:39.840Z,21.60
2023-05-22T21:52:08.080Z,21.50
2023-05-22T21:54:36.223Z,21.50
2023-05-22T21:57:04.315Z,21.40
2023-05-22T21:59:32.512Z,21.40
2023-05-22T22:02:00.681Z,21.40
2023-05-22T22:04:30.183Z,21.40
2023-05-22T22:06:58.254Z,21.50
2023-05-22T22:09:26.332Z,21.50
2023-05-22T22:11:54.457Z,21.50
2023-05-22T22:14:22.614Z,21.50
2023-05-22T22:16:54.612Z,21.60
2023-05-22T22:19:23.104Z,21.50
2023-05-22T22:21:52.693Z,21.50
2023-05-22T22:24:21.648Z,21.50
2023-05-22T22:26:50.122Z,21.50
2023-05-22T22:29:18.269Z,21.50
2023-05-22T22:31:46.466Z,21.50
2023-05-22T22:34:14.644Z,21.60
2023-05-22T22:36:42.714Z,21.60
2023-05-22T22:39:12.186Z,21.60
2023-05-22T22:41:40.269Z,21.50
2023-05-22T22:44:08.458Z,21.50
2023-05-22T22:46:36.827Z,21.50
2023-05-22T22:49:05.027Z,21.50
2023-05-22T22:51:34.564Z,21.50
2023-05-22T22:54:02.682Z,21.50
2023-05-22T22:56:32.206Z,21.50
2023-05-22T22:59:00.307Z,21.40
2023-05-22T23:01:28.418Z,21.50
2023-05-22T23:03:56.565Z,21.50
2023-05-22T23:06:26.672Z,21.50
2023-05-22T23:08:55.508Z,21.50
2023-05-22T23:11:23.617Z,21.50
2023-05-22T23:13:53.122Z,21.50
2023-05-22T23:16:21.882Z,21.50
2023-05-22T23:18:50.198Z,21.50
2023-05-22T23:21:18.299Z,21.60
2023-05-22T23:23:46.382Z,21.60
2023-05-22T23:26:14.539Z,21.50
2023-05-22T23:28:42.639Z,21.50
2023-05-22T23:31:14.217Z,21.50
2023-05-22T23:33:42.389Z,21.40
2023-05-22T23:36:10.452Z,21.40
2023-05-22T23:38:38.523Z,21.40
2023-05-22T23:41:06.739Z,21.50
2023-05-22T23:43:34.976Z,21.40
2023-05-22T23:46:03.228Z,21.50
2023-05-22T23:48:32.802Z,21.50
2023-05-22T23:51:00.884Z,21.50
2023-05-22T23:53:28.938Z,21.50
2023-05-22T23:55:57.009Z,21.50
2023-05-22T23:58:25.093Z,21.50
